createdAt,value
2023-02-06T00:01:14.431Z,21.38
2023-02-06T00:03:45.388Z,21.38
2023-02-06T00:08:48.031Z,21.36
2023-02-06T00:11:21.303Z,21.35
2023-02-06T00:13:52.502Z,21.36
2023-02-06T00:16:26.341Z,21.33
2023-02-06T00:18:58.421Z,21.34
2023-02-06T00:21:30.288Z,21.32
2023-02-06T00:24:04.278Z,21.32
2023-02-06T00:26:35.229Z,21.31
2023-02-06T00:29:05.833Z,21.30
2023-02-06T00:31:37.131Z,21.27
2023-02-06T00:34:08.148Z,21.25
2023-02-06T00:36:39.409Z,21.25
2023-02-06T00:39:11.601Z,21.24
2023-02-06T00:41:42.510Z,21.23
2023-02-06T00:44:13.346Z,21.22
2023-02-06T00:46:44.629Z,21.20
2023-02-06T00:49:15.220Z,21.18
2023-02-06T00:51:45.976Z,21.17
2023-02-06T00:54:18.439Z,21.15
2023-02-06T00:56:49.230Z,21.13
2023-02-06T00:59:20.365Z,21.12
2023-02-06T01:01:51.712Z,21.10
2023-02-06T01:04:22.542Z,21.07
2023-02-06T01:06:54.008Z,21.05
2023-02-06T01:09:26.761Z,21.00
2023-02-06T01:11:56.739Z,20.97
2023-02-06T01:14:27.940Z,20.95
2023-02-06T01:16:59.086Z,20.93
2023-02-06T01:19:29.172Z,20.91
2023-02-06T01:21:59.853Z,20.90
2023-02-06T01:24:31.579Z,20.88
2023-02-06T01:27:02.345Z,20.86
2023-02-06T01:29:33.505Z,20.84
2023-02-06T01:32:04.165Z,20.80
2023-02-06T01:34:35.566Z,20.79
2023-02-06T01:37:06.344Z,20.77
2023-02-06T01:39:39.615Z,20.76
2023-02-06T01:42:10.394Z,20.75
2023-02-06T01:44:40.859Z,20.72
2023-02-06T01:47:13.915Z,20.70
2023-02-06T01:49:50.468Z,20.69
2023-02-06T01:52:26.685Z,20.68
2023-02-06T01:55:03.689Z,20.67
2023-02-06T01:57:36.089Z,20.65
2023-02-06T02:00:12.866Z,20.64
2023-02-06T02:02:48.739Z,20.63
2023-02-06T02:05:22.385Z,20.61
2023-02-06T02:08:02.992Z,20.60
2023-02-06T02:10:35.485Z,20.59
2023-02-06T02:13:06.222Z,20.57
2023-02-06T02:15:48.901Z,20.57
2023-02-06T02:18:43.526Z,20.54
2023-02-06T02:22:01.032Z,20.51
2023-02-06T02:25:08.520Z,20.48
2023-02-06T02:28:28.272Z,20.45
2023-02-06T02:31:48.809Z,20.40
2023-02-06T02:35:07.933Z,20.36
2023-02-06T02:37:56.055Z,20.35
2023-02-06T02:40:37.123Z,20.35
2023-02-06T02:43:21.035Z,20.32
2023-02-06T02:46:03.070Z,20.32
2023-02-06T02:48:40.496Z,20.31
2023-02-06T02:51:14.379Z,20.29
2023-02-06T02:53:45.189Z,20.29
2023-02-06T02:56:24.970Z,20.28
2023-02-06T02:59:01.181Z,20.28
2023-02-06T03:01:38.854Z,20.28
2023-02-06T03:04:15.328Z,20.26
2023-02-06T03:07:16.682Z,20.27
2023-02-06T03:10:01.291Z,20.26
2023-02-06T03:12:47.683Z,20.24
2023-02-06T03:15:32.328Z,20.24
2023-02-06T03:18:10.183Z,20.22
2023-02-06T03:20:47.916Z,20.25
2023-02-06T03:23:27.496Z,20.24
2023-02-06T03:26:04.727Z,20.25
2023-02-06T03:28:38.841Z,20.24
2023-02-06T03:31:14.637Z,20.24
2023-02-06T03:33:54.907Z,20.24
2023-02-06T03:36:25.411Z,20.23
2023-02-06T03:38:57.942Z,20.22
2023-02-06T03:41:34.378Z,20.23
2023-02-06T03:44:11.654Z,20.23
2023-02-06T03:46:46.228Z,20.24
2023-02-06T03:49:20.819Z,20.24
2023-02-06T03:51:57.686Z,20.24
2023-02-06T03:54:32.233Z,20.25
2023-02-06T03:57:06.515Z,20.25
2023-02-06T03:59:37.425Z,20.24
2023-02-06T04:02:09.569Z,20.23
2023-02-06T04:04:43.716Z,20.24
2023-02-06T04:07:22.449Z,20.23
2023-02-06T04:09:55.723Z,20.21
2023-02-06T04:12:27.589Z,20.19
2023-02-06T04:14:58.173Z,20.19
2023-02-06T04:17:46.363Z,20.19
2023-02-06T04:20:22.367Z,20.18
2023-02-06T04:22:52.613Z,20.17
2023-02-06T04:25:25.646Z,20.16
2023-02-06T04:27:56.449Z,20.15
2023-02-06T04:30:27.069Z,20.16
2023-02-06T04:32:57.663Z,20.15
2023-02-06T04:35:27.866Z,20.16
2023-02-06T04:37:58.061Z,20.18
2023-02-06T04:40:30.930Z,20.16
2023-02-06T04:43:01.586Z,20.17
2023-02-06T04:45:32.210Z,20.16
2023-02-06T04:48:02.445Z,20.15
2023-02-06T04:50:34.909Z,20.16
2023-02-06T04:53:05.187Z,20.18
2023-02-06T04:55:38.338Z,20.17
2023-02-06T04:58:09.191Z,20.17
2023-02-06T05:00:40.170Z,20.18
2023-02-06T05:03:10.902Z,20.19
2023-02-06T05:05:41.008Z,20.20
2023-02-06T05:08:11.639Z,20.22
2023-02-06T05:10:44.357Z,20.23
2023-02-06T05:13:15.260Z,20.23
2023-02-06T05:15:45.299Z,20.22
2023-02-06T05:18:17.573Z,20.22
2023-02-06T05:20:48.786Z,20.22
2023-02-06T05:23:19.311Z,20.24
2023-02-06T05:25:53.080Z,20.25
2023-02-06T05:28:23.908Z,20.25
2023-02-06T05:30:54.885Z,20.28
2023-02-06T05:33:26.228Z,20.32
2023-02-06T05:35:56.511Z,20.35
2023-02-06T05:38:27.763Z,20.37
2023-02-06T05:40:59.989Z,20.38
2023-02-06T05:43:30.724Z,20.40
2023-02-06T05:46:01.446Z,20.41
2023-02-06T05:48:33.348Z,20.45
2023-02-06T05:51:04.303Z,20.47
2023-02-06T05:53:35.481Z,20.50
2023-02-06T05:56:08.999Z,20.53
2023-02-06T05:58:39.140Z,20.56
2023-02-06T06:01:10.320Z,20.60
2023-02-06T06:03:41.197Z,20.63
2023-02-06T06:06:12.312Z,20.65
2023-02-06T06:08:42.798Z,20.67
2023-02-06T06:11:15.952Z,20.70
2023-02-06T06:13:46.605Z,20.74
2023-02-06T06:16:17.244Z,20.79
2023-02-06T06:18:47.932Z,20.83
2023-02-06T06:21:19.079Z,20.90
2023-02-06T06:23:49.752Z,21.00
2023-02-06T06:26:21.961Z,21.07
2023-02-06T06:28:52.479Z,21.11
2023-02-06T06:31:23.178Z,21.13
2023-02-06T06:33:54.689Z,21.14
2023-02-06T06:36:24.991Z,21.14
2023-02-06T06:38:56.428Z,21.13
2023-02-06T06:41:29.246Z,21.15
2023-02-06T06:43:59.812Z,21.16
2023-02-06T06:46:30.427Z,21.15
2023-02-06T06:49:01.778Z,21.18
2023-02-06T06:51:32.558Z,21.21
2023-02-06T06:54:03.901Z,21.26
2023-02-06T06:56:36.461Z,21.32
2023-02-06T06:59:07.145Z,21.41
2023-02-06T07:01:37.894Z,21.51
2023-02-06T07:04:09.149Z,21.58
2023-02-06T07:06:39.952Z,21.63
2023-02-06T07:09:10.097Z,21.65
2023-02-06T07:11:43.222Z,21.65
2023-02-06T07:14:13.980Z,21.59
2023-02-06T07:16:45.740Z,21.57
2023-02-06T07:19:16.406Z,21.56
2023-02-06T07:21:47.234Z,21.56
2023-02-06T07:24:17.434Z,21.55
2023-02-06T07:26:49.814Z,21.52
2023-02-06T07:29:20.134Z,21.48
2023-02-06T07:31:50.910Z,21.43
2023-02-06T07:34:22.187Z,21.39
2023-02-06T07:36:52.906Z,21.32
2023-02-06T07:39:23.589Z,21.27
2023-02-06T07:41:56.737Z,21.23
2023-02-06T07:44:27.399Z,21.18
2023-02-06T07:46:59.215Z,21.15
2023-02-06T07:49:30.481Z,21.12
2023-02-06T07:52:01.190Z,21.09
2023-02-06T07:54:32.036Z,21.07
2023-02-06T07:57:04.642Z,21.04
2023-02-06T07:59:35.418Z,21.01
2023-02-06T08:02:06.165Z,20.98
2023-02-06T08:04:38.739Z,20.95
2023-02-06T08:07:15.285Z,20.92
2023-02-06T08:09:45.572Z,20.91
2023-02-06T08:12:18.326Z,20.89
2023-02-06T08:14:49.025Z,20.87
2023-02-06T08:17:20.044Z,20.85
2023-02-06T08:19:51.928Z,20.83
2023-02-06T08:22:22.583Z,20.79
2023-02-06T08:24:53.002Z,20.76
2023-02-06T08:27:25.941Z,20.73
2023-02-06T08:29:57.681Z,20.70
2023-02-06T08:32:28.434Z,20.69
2023-02-06T08:34:58.582Z,20.67
2023-02-06T08:37:29.311Z,20.67
2023-02-06T08:40:00.046Z,20.67
2023-02-06T08:42:32.858Z,20.69
2023-02-06T08:45:03.654Z,20.70
2023-02-06T08:47:33.976Z,20.68
2023-02-06T08:50:04.218Z,20.68
2023-02-06T08:52:34.422Z,20.69
2023-02-06T08:55:05.226Z,20.68
2023-02-06T08:57:37.742Z,20.68
2023-02-06T09:00:10.699Z,20.68
2023-02-06T09:02:41.308Z,20.68
2023-02-06T09:05:12.239Z,20.69
2023-02-06T09:07:43.478Z,20.70
2023-02-06T09:10:26.737Z,20.72
2023-02-06T09:13:00.616Z,20.71
2023-02-06T09:15:31.069Z,20.72
2023-02-06T09:18:01.737Z,20.74
2023-02-06T09:20:31.784Z,20.74
2023-02-06T09:23:01.728Z,20.74
2023-02-06T09:25:32.415Z,20.74
2023-02-06T09:28:07.291Z,20.73
2023-02-06T09:30:38.144Z,20.74
2023-02-06T09:33:08.864Z,20.75
2023-02-06T09:35:39.652Z,20.75
2023-02-06T09:38:09.936Z,20.75
2023-02-06T09:40:41.041Z,20.76
2023-02-06T09:43:17.045Z,20.76
2023-02-06T09:45:47.726Z,20.76
2023-02-06T09:48:24.817Z,20.76
2023-02-06T09:51:09.181Z,20.78
2023-02-06T09:53:55.128Z,20.80
2023-02-06T09:56:38.698Z,20.83
2023-02-06T09:59:27.882Z,20.86
2023-02-06T10:02:22.414Z,20.88
2023-02-06T10:05:03.583Z,20.88
2023-02-06T10:08:03.496Z,20.89
2023-02-06T10:10:41.077Z,20.89
2023-02-06T10:13:21.862Z,20.90
2023-02-06T10:16:02.436Z,20.92
2023-02-06T10:18:42.797Z,20.91
2023-02-06T10:21:28.163Z,20.92
2023-02-06T10:24:10.419Z,20.91
2023-02-06T10:26:43.372Z,20.91
2023-02-06T10:29:24.012Z,20.92
2023-02-06T10:32:19.325Z,20.92
2023-02-06T10:35:35.152Z,20.91
2023-02-06T10:38:34.743Z,20.92
2023-02-06T10:41:14.665Z,20.91
2023-02-06T10:43:56.040Z,20.91
2023-02-06T10:46:47.229Z,20.92
2023-02-06T10:49:28.604Z,20.92
2023-02-06T10:52:04.469Z,20.91
2023-02-06T10:54:41.301Z,20.92
2023-02-06T10:57:23.085Z,20.93
2023-02-06T10:59:58.347Z,20.94
2023-02-06T11:02:34.092Z,20.96
2023-02-06T11:05:12.317Z,20.98
2023-02-06T11:07:47.891Z,20.99
2023-02-06T11:10:21.925Z,21.02
2023-02-06T11:13:05.510Z,21.05
2023-02-06T11:15:46.854Z,21.07
2023-02-06T11:18:23.691Z,21.09
2023-02-06T11:20:55.937Z,21.11
2023-02-06T11:23:29.814Z,21.14
2023-02-06T11:26:14.512Z,21.16
2023-02-06T11:28:56.454Z,21.18
2023-02-06T11:31:44.431Z,21.20
2023-02-06T11:34:28.755Z,21.19
2023-02-06T11:37:03.403Z,21.19
2023-02-06T11:39:37.918Z,21.19
2023-02-06T11:42:23.436Z,21.18
2023-02-06T11:44:54.399Z,21.19
2023-02-06T11:47:33.269Z,21.19
2023-02-06T11:50:27.933Z,21.21
2023-02-06T11:53:13.179Z,21.23
2023-02-06T11:55:45.189Z,21.26
2023-02-06T11:58:27.666Z,21.29
2023-02-06T12:01:06.299Z,21.30
2023-02-06T12:03:41.251Z,21.30
2023-02-06T12:06:17.332Z,21.31
2023-02-06T12:08:55.028Z,21.31
2023-02-06T12:11:33.039Z,21.31
2023-02-06T12:14:19.221Z,21.29
2023-02-06T12:16:50.806Z,21.24
2023-02-06T12:19:26.534Z,21.21
2023-02-06T12:22:04.699Z,21.18
2023-02-06T12:24:44.383Z,21.11
2023-02-06T12:27:21.500Z,21.05
2023-02-06T12:30:02.257Z,21.00
2023-02-06T12:32:40.413Z,20.95
2023-02-06T12:35:24.459Z,20.91
2023-02-06T12:38:01.553Z,20.85
2023-02-06T12:40:50.147Z,20.80
2023-02-06T12:43:22.668Z,20.75
2023-02-06T12:46:00.313Z,20.68
2023-02-06T12:48:42.784Z,20.61
2023-02-06T12:51:24.729Z,20.54
2023-02-06T12:54:03.792Z,20.49
2023-02-06T12:56:44.330Z,20.44
2023-02-06T12:59:57.625Z,20.40
2023-02-06T13:03:04.649Z,20.37
2023-02-06T13:05:41.464Z,20.34
2023-02-06T13:08:17.922Z,20.33
2023-02-06T13:10:53.435Z,20.31
2023-02-06T13:13:37.955Z,20.32
2023-02-06T13:16:10.846Z,20.31
2023-02-06T13:18:57.176Z,20.31
2023-02-06T13:21:32.822Z,20.31
2023-02-06T13:24:22.075Z,20.32
2023-02-06T13:27:20.357Z,20.30
2023-02-06T13:29:54.295Z,20.30
2023-02-06T13:32:45.852Z,20.32
2023-02-06T13:35:30.332Z,20.33
2023-02-06T13:38:39.053Z,20.35
2023-02-06T13:41:37.626Z,20.35
2023-02-06T13:44:19.291Z,20.36
2023-02-06T13:47:28.009Z,20.36
2023-02-06T13:50:41.799Z,20.34
2023-02-06T13:53:49.034Z,20.33
2023-02-06T13:56:52.810Z,20.33
2023-02-06T13:59:31.109Z,20.33
2023-02-06T14:02:16.229Z,20.32
2023-02-06T14:04:48.628Z,20.29
2023-02-06T14:07:54.943Z,20.24
2023-02-06T14:11:23.073Z,20.20
2023-02-06T14:14:41.434Z,20.16
2023-02-06T14:17:31.894Z,20.14
2023-02-06T14:20:18.646Z,20.14
2023-02-06T14:23:03.386Z,20.14
2023-02-06T14:25:59.136Z,20.12
2023-02-06T14:28:44.331Z,20.10
2023-02-06T14:31:30.016Z,20.08
2023-02-06T14:34:36.460Z,20.06
2023-02-06T14:37:48.053Z,20.02
2023-02-06T14:40:24.337Z,20.00
2023-02-06T14:42:59.038Z,19.99
2023-02-06T14:45:41.598Z,19.98
2023-02-06T14:48:26.348Z,19.96
2023-02-06T14:51:01.438Z,19.95
2023-02-06T14:53:37.616Z,19.95
2023-02-06T14:56:20.344Z,19.91
2023-02-06T14:58:51.894Z,19.88
2023-02-06T15:01:31.191Z,19.85
2023-02-06T15:04:14.932Z,19.83
2023-02-06T15:06:55.299Z,19.80
2023-02-06T15:09:29.727Z,19.77
2023-02-06T15:12:02.859Z,19.75
2023-02-06T15:14:35.995Z,19.73
2023-02-06T15:17:06.868Z,19.72
2023-02-06T15:19:38.432Z,19.70
2023-02-06T15:22:17.219Z,19.69
2023-02-06T15:25:21.286Z,19.67
2023-02-06T15:27:52.077Z,19.65
2023-02-06T15:30:28.911Z,19.64
2023-02-06T15:32:59.768Z,19.63
2023-02-06T15:35:36.505Z,19.62
2023-02-06T15:38:13.508Z,19.60
2023-02-06T15:40:48.017Z,19.61
2023-02-06T15:43:21.652Z,19.60
2023-02-06T15:45:56.250Z,19.58
2023-02-06T15:48:35.080Z,19.57
2023-02-06T15:51:22.833Z,19.58
2023-02-06T15:54:09.065Z,19.56
2023-02-06T15:56:44.193Z,19.55
2023-02-06T15:59:23.625Z,19.55
2023-02-06T16:01:57.185Z,19.52
2023-02-06T16:04:35.643Z,19.51
2023-02-06T16:07:17.977Z,19.48
2023-02-06T16:09:57.597Z,19.45
2023-02-06T16:12:28.750Z,19.42
2023-02-06T16:15:01.873Z,19.39
2023-02-06T16:17:38.534Z,19.36
2023-02-06T16:20:29.394Z,19.33
2023-02-06T16:23:29.190Z,19.31
2023-02-06T16:26:09.892Z,19.31
2023-02-06T16:28:52.266Z,19.31
2023-02-06T16:31:22.546Z,19.31
2023-02-06T16:33:55.534Z,19.33
2023-02-06T16:36:27.175Z,19.32
2023-02-06T16:39:03.586Z,19.33
2023-02-06T16:41:39.195Z,19.32
2023-02-06T16:44:17.873Z,19.33
2023-02-06T16:46:48.474Z,19.33
2023-02-06T16:49:22.485Z,19.35
2023-02-06T16:51:56.334Z,19.35
2023-02-06T16:54:32.155Z,19.38
2023-02-06T16:57:12.186Z,19.40
2023-02-06T16:59:42.706Z,19.43
2023-02-06T17:02:15.990Z,19.44
2023-02-06T17:04:45.975Z,19.47
2023-02-06T17:07:23.538Z,19.48
2023-02-06T17:09:57.273Z,19.49
2023-02-06T17:12:29.655Z,19.49
2023-02-06T17:15:00.840Z,19.49
2023-02-06T17:17:31.751Z,19.51
2023-02-06T17:20:02.797Z,19.52
2023-02-06T17:22:33.465Z,19.53
2023-02-06T17:25:04.043Z,19.52
2023-02-06T17:27:36.127Z,19.54
2023-02-06T17:30:07.654Z,19.53
2023-02-06T17:32:38.335Z,19.55
2023-02-06T17:35:10.188Z,19.56
2023-02-06T17:37:41.100Z,19.56
2023-02-06T17:40:19.761Z,19.58
2023-02-06T17:42:54.492Z,19.59
2023-02-06T17:45:28.081Z,19.61
2023-02-06T17:47:58.860Z,19.61
2023-02-06T17:50:32.354Z,19.61
2023-02-06T17:53:04.655Z,19.63
2023-02-06T17:55:37.647Z,19.63
2023-02-06T17:58:09.807Z,19.62
2023-02-06T18:00:42.259Z,19.61
2023-02-06T18:03:17.656Z,19.60
2023-02-06T18:05:48.825Z,19.56
2023-02-06T18:08:19.807Z,19.56
2023-02-06T18:10:50.578Z,19.54
2023-02-06T18:13:25.415Z,19.54
2023-02-06T18:15:59.069Z,19.54
2023-02-06T18:18:29.291Z,19.53
2023-02-06T18:20:59.645Z,19.52
2023-02-06T18:23:31.453Z,19.52
2023-02-06T18:26:05.997Z,19.52
2023-02-06T18:28:39.816Z,19.53
2023-02-06T18:31:28.376Z,19.52
2023-02-06T18:34:00.101Z,19.50
2023-02-06T18:36:30.673Z,19.50
2023-02-06T18:39:00.831Z,19.48
2023-02-06T18:41:48.405Z,19.49
2023-02-06T18:44:21.394Z,19.48
2023-02-06T18:46:52.209Z,19.46
2023-02-06T18:49:23.104Z,19.47
2023-02-06T18:51:53.806Z,19.44
2023-02-06T18:54:25.265Z,19.44
2023-02-06T18:56:56.607Z,19.43
2023-02-06T18:59:29.480Z,19.41
2023-02-06T19:02:00.889Z,19.40
2023-02-06T19:04:31.255Z,19.41
2023-02-06T19:07:01.453Z,19.40
2023-02-06T19:09:32.776Z,19.40
2023-02-06T19:12:03.453Z,19.40
2023-02-06T19:14:36.495Z,19.41
2023-02-06T19:17:07.354Z,19.41
2023-02-06T19:19:37.753Z,19.42
2023-02-06T19:22:09.575Z,19.44
2023-02-06T19:24:42.517Z,19.44
2023-02-06T19:27:14.788Z,19.45
2023-02-06T19:29:47.204Z,19.46
2023-02-06T19:32:18.248Z,19.46
2023-02-06T19:34:48.857Z,19.47
2023-02-06T19:37:19.795Z,19.47
2023-02-06T19:39:51.092Z,19.48
2023-02-06T19:42:22.478Z,19.48
2023-02-06T19:44:57.802Z,19.47
2023-02-06T19:47:36.915Z,19.46
2023-02-06T19:50:08.910Z,19.47
2023-02-06T19:52:39.635Z,19.45
2023-02-06T19:55:11.533Z,19.45
2023-02-06T19:57:42.325Z,19.45
2023-02-06T20:00:17.913Z,19.44
2023-02-06T20:02:48.648Z,19.44
2023-02-06T20:05:20.811Z,19.44
2023-02-06T20:07:50.996Z,19.45
2023-02-06T20:10:21.976Z,19.45
2023-02-06T20:12:53.999Z,19.46
2023-02-06T20:15:26.701Z,19.45
2023-02-06T20:18:06.024Z,19.47
2023-02-06T20:20:38.348Z,19.45
2023-02-06T20:23:09.134Z,19.47
2023-02-06T20:25:41.490Z,19.48
2023-02-06T20:28:13.340Z,19.49
2023-02-06T20:30:46.010Z,19.50
2023-02-06T20:33:15.987Z,19.51
2023-02-06T20:35:47.197Z,19.54
2023-02-06T20:38:18.067Z,19.55
2023-02-06T20:40:54.983Z,19.57
2023-02-06T20:43:26.323Z,19.57
2023-02-06T20:45:58.628Z,19.57
2023-02-06T20:48:29.459Z,19.58
2023-02-06T20:51:00.933Z,19.58
2023-02-06T20:53:32.131Z,19.58
2023-02-06T20:56:02.305Z,19.59
2023-02-06T20:58:32.249Z,19.60
2023-02-06T21:01:05.364Z,19.61
2023-02-06T21:03:36.581Z,19.62
2023-02-06T21:06:08.075Z,19.62
2023-02-06T21:08:38.879Z,19.64
2023-02-06T21:11:09.950Z,19.64
2023-02-06T21:13:43.278Z,19.64
2023-02-06T21:16:16.945Z,19.66
2023-02-06T21:18:48.121Z,19.66
2023-02-06T21:21:19.080Z,19.68
2023-02-06T21:23:50.701Z,19.68
2023-02-06T21:26:21.482Z,19.69
2023-02-06T21:28:52.914Z,19.69
2023-02-06T21:31:34.792Z,19.70
2023-02-06T21:34:10.306Z,19.68
2023-02-06T21:36:42.474Z,19.65
2023-02-06T21:39:17.134Z,19.64
2023-02-06T21:41:52.140Z,19.63
2023-02-06T21:44:24.146Z,19.63
2023-02-06T21:46:58.368Z,19.61
2023-02-06T21:49:29.042Z,19.61
2023-02-06T21:52:02.173Z,19.58
2023-02-06T21:54:32.898Z,19.58
2023-02-06T21:57:03.089Z,19.58
2023-02-06T21:59:34.624Z,19.56
2023-02-06T22:02:07.013Z,19.56
2023-02-06T22:04:37.846Z,19.55
2023-02-06T22:07:12.190Z,19.54
2023-02-06T22:09:43.102Z,19.52
2023-02-06T22:12:13.792Z,19.52
2023-02-06T22:14:45.049Z,19.52
2023-02-06T22:17:18.400Z,19.52
2023-02-06T22:19:49.520Z,19.52
2023-02-06T22:22:19.385Z,19.53
2023-02-06T22:24:51.706Z,19.54
2023-02-06T22:27:22.136Z,19.55
2023-02-06T22:29:53.190Z,19.57
2023-02-06T22:32:27.848Z,19.57
2023-02-06T22:35:02.441Z,19.58
2023-02-06T22:37:35.677Z,19.58
2023-02-06T22:40:06.304Z,19.58
2023-02-06T22:42:37.295Z,19.59
2023-02-06T22:45:10.024Z,19.59
2023-02-06T22:47:43.369Z,19.59
2023-02-06T22:50:14.190Z,19.59
2023-02-06T22:53:01.168Z,19.57
2023-02-06T22:55:51.925Z,19.56
2023-02-06T22:58:22.525Z,19.55
2023-02-06T23:00:52.860Z,19.55
2023-02-06T23:03:25.185Z,19.54
2023-02-06T23:05:56.159Z,19.54
2023-02-06T23:08:26.383Z,19.51
2023-02-06T23:10:58.131Z,19.51
2023-02-06T23:13:29.372Z,19.47
2023-02-06T23:16:01.312Z,19.45
2023-02-06T23:18:34.981Z,19.44
2023-02-06T23:21:08.979Z,19.43
2023-02-06T23:23:40.121Z,19.41
2023-02-06T23:26:12.115Z,19.41
2023-02-06T23:28:42.607Z,19.40
2023-02-06T23:31:14.149Z,19.39
2023-02-06T23:33:46.158Z,19.36
2023-02-06T23:36:20.275Z,19.34
2023-02-06T23:38:51.445Z,19.32
2023-02-06T23:41:25.766Z,19.31
2023-02-06T23:43:59.594Z,19.29
2023-02-06T23:46:33.395Z,19.28
2023-02-06T23:49:07.386Z,19.28
2023-02-06T23:51:38.558Z,19.27
2023-02-06T23:54:11.458Z,19.27
2023-02-06T23:56:42.199Z,19.25
2023-02-06T23:59:15.505Z,19.22
